createdAt,value
2017-10-05T00:01:58.349Z,77.40
2017-10-05T00:04:25.950Z,77.40
2017-10-05T00:06:53.510Z,77.40
2017-10-05T00:09:21.838Z,77.70
2017-10-05T00:11:49.360Z,77.60
2017-10-05T00:14:16.898Z,78.00
2017-10-05T00:16:45.230Z,78.60
2017-10-05T00:19:12.973Z,78.60
2017-10-05T00:21:40.535Z,78.70
2017-10-05T00:24:08.092Z,78.60
2017-10-05T00:26:35.680Z,78.60
2017-10-05T00:29:03.246Z,78.30
2017-10-05T00:31:30.812Z,78.50
2017-10-05T00:33:58.381Z,78.80
2017-10-05T00:36:25.952Z,78.80
2017-10-05T00:38:54.261Z,79.00
2017-10-05T00:41:21.809Z,79.00
2017-10-05T00:43:49.371Z,79.00
2017-10-05T00:46:16.935Z,79.20
2017-10-05T00:48:44.508Z,79.40
2017-10-05T00:51:12.073Z,79.40
2017-10-05T00:53:39.642Z,79.10
2017-10-05T00:56:07.200Z,78.70
2017-10-05T00:58:34.780Z,79.10
2017-10-05T01:01:02.365Z,79.20
2017-10-05T01:03:30.711Z,79.90
2017-10-05T01:05:58.257Z,79.70
2017-10-05T01:08:25.785Z,79.60
2017-10-05T01:10:54.118Z,79.70
2017-10-05T01:13:21.705Z,79.70
2017-10-05T01:15:50.116Z,79.90
2017-10-05T01:18:17.660Z,79.90
2017-10-05T01:20:46.057Z,80.00
2017-10-05T01:23:13.609Z,79.90
2017-10-05T01:25:41.949Z,79.80
2017-10-05T01:28:09.492Z,79.80
2017-10-05T01:30:37.053Z,79.20
2017-10-05T01:33:04.598Z,79.20
2017-10-05T01:35:32.174Z,79.20
2017-10-05T01:37:59.746Z,79.10
2017-10-05T01:40:27.319Z,78.80
2017-10-05T01:42:54.917Z,78.20
2017-10-05T01:45:22.474Z,78.00
2017-10-05T01:47:50.039Z,77.80
2017-10-05T01:50:17.615Z,77.80
2017-10-05T01:52:45.166Z,77.80
2017-10-05T01:55:12.717Z,77.90
2017-10-05T01:57:40.278Z,77.90
2017-10-05T02:00:07.881Z,77.70
2017-10-05T02:02:35.450Z,77.60
2017-10-05T02:05:03.001Z,77.30
2017-10-05T02:07:30.542Z,77.20
2017-10-05T02:09:58.111Z,77.20
2017-10-05T02:12:25.641Z,77.00
2017-10-05T02:14:53.205Z,76.60
2017-10-05T02:17:20.745Z,76.50
2017-10-05T02:19:48.310Z,76.50
2017-10-05T02:22:15.870Z,76.00
2017-10-05T02:24:43.438Z,75.80
2017-10-05T02:27:11.002Z,76.00
2017-10-05T02:29:38.607Z,75.90
2017-10-05T02:32:06.161Z,75.60
2017-10-05T02:34:33.706Z,75.90
2017-10-05T02:37:01.304Z,75.80
2017-10-05T02:39:29.646Z,75.90
2017-10-05T02:41:57.221Z,76.00
2017-10-05T02:44:24.769Z,75.90
2017-10-05T02:46:52.349Z,75.90
2017-10-05T02:49:19.913Z,75.90
2017-10-05T02:51:47.470Z,75.60
2017-10-05T02:54:15.027Z,75.60
2017-10-05T02:56:42.569Z,75.70
2017-10-05T02:59:10.133Z,75.40
2017-10-05T03:01:37.678Z,74.80
2017-10-05T03:04:05.251Z,75.50
2017-10-05T03:06:32.790Z,75.60
2017-10-05T03:09:00.373Z,75.50
2017-10-05T03:11:27.934Z,75.60
2017-10-05T03:13:55.497Z,75.80
2017-10-05T03:16:23.051Z,75.60
2017-10-05T03:18:50.615Z,75.70
2017-10-05T03:21:18.164Z,75.90
2017-10-05T03:23:45.730Z,75.60
2017-10-05T03:26:13.293Z,75.40
2017-10-05T03:28:40.843Z,75.10
2017-10-05T03:31:08.400Z,75.40
2017-10-05T03:33:35.957Z,75.60
2017-10-05T03:36:03.527Z,75.70
2017-10-05T03:38:31.111Z,75.80
2017-10-05T03:40:59.448Z,76.20
2017-10-05T03:43:27.018Z,76.20
2017-10-05T03:45:54.587Z,76.20
2017-10-05T03:48:22.188Z,76.00
2017-10-05T03:50:49.778Z,76.30
2017-10-05T03:53:17.338Z,76.50
2017-10-05T03:55:44.897Z,76.60
2017-10-05T03:58:12.461Z,76.60
2017-10-05T04:00:40.015Z,76.40
2017-10-05T04:03:07.593Z,76.50
2017-10-05T04:05:35.145Z,76.70
2017-10-05T04:08:02.720Z,76.50
2017-10-05T04:10:30.312Z,76.20
2017-10-05T04:12:57.871Z,76.40
2017-10-05T04:15:25.437Z,76.30
2017-10-05T04:17:53.004Z,76.50
2017-10-05T04:20:21.349Z,76.50
2017-10-05T04:22:48.888Z,76.50
2017-10-05T04:25:16.457Z,76.60
2017-10-05T04:27:44.016Z,77.10
2017-10-05T04:30:11.598Z,77.30
2017-10-05T04:32:39.183Z,77.10
2017-10-05T04:35:07.517Z,77.50
2017-10-05T04:37:35.109Z,77.50
2017-10-05T04:40:02.665Z,77.50
2017-10-05T04:42:30.222Z,77.20
2017-10-05T04:44:57.782Z,77.30
2017-10-05T04:47:25.332Z,77.00
2017-10-05T04:49:52.897Z,76.80
2017-10-05T04:52:20.479Z,77.10
2017-10-05T04:54:48.797Z,77.30
2017-10-05T04:57:16.360Z,77.30
2017-10-05T04:59:43.934Z,77.00
2017-10-05T05:02:11.513Z,76.80
2017-10-05T05:04:39.074Z,76.80
2017-10-05T05:07:06.634Z,76.40
2017-10-05T05:09:34.177Z,76.30
2017-10-05T05:12:01.763Z,76.60
2017-10-05T05:14:29.329Z,76.60
2017-10-05T05:16:56.901Z,76.70
2017-10-05T05:19:25.215Z,76.20
2017-10-05T05:21:52.807Z,76.20
2017-10-05T05:24:20.361Z,76.30
2017-10-05T05:26:47.918Z,76.20
2017-10-05T05:29:16.283Z,76.10
2017-10-05T05:31:43.832Z,76.30
2017-10-05T05:34:11.412Z,76.40
2017-10-05T05:36:47.191Z,76.30
2017-10-05T05:39:16.442Z,76.00
2017-10-05T16:06:58.486Z,92.00
2017-10-05T16:09:26.323Z,92.20
2017-10-05T16:11:54.669Z,92.00
2017-10-05T16:14:22.258Z,92.00
2017-10-05T16:16:49.819Z,92.00
2017-10-05T16:19:17.405Z,92.20
2017-10-05T16:21:44.965Z,92.50
2017-10-05T16:24:13.324Z,92.30
2017-10-05T16:26:40.895Z,92.30
2017-10-05T16:29:08.476Z,92.30
2017-10-05T16:31:36.058Z,92.30
2017-10-05T16:34:03.646Z,92.30
2017-10-05T16:36:31.245Z,92.10
2017-10-05T16:38:58.816Z,92.20
2017-10-05T16:41:26.397Z,92.10
2017-10-05T16:43:53.958Z,92.30
2017-10-05T16:46:21.604Z,92.60
2017-10-05T16:48:49.930Z,92.90
2017-10-05T16:51:17.524Z,92.90
2017-10-05T16:53:45.340Z,88.00
2017-10-05T16:56:13.081Z,89.80
2017-10-05T16:58:40.904Z,88.90
2017-10-05T17:01:08.500Z,89.90
2017-10-05T17:03:36.850Z,90.80
2017-10-05T17:06:04.527Z,90.80
2017-10-05T17:08:33.845Z,90.70
2017-10-05T17:11:02.401Z,90.90
2017-10-05T17:13:30.045Z,90.90
2017-10-05T17:15:57.607Z,91.00
2017-10-05T17:18:25.375Z,90.80
2017-10-05T17:20:53.146Z,90.90
2017-10-05T17:23:21.695Z,90.30
2017-10-05T17:25:50.761Z,90.00
2017-10-05T17:28:19.111Z,90.30
2017-10-05T17:30:46.738Z,90.30
2017-10-05T17:33:14.314Z,90.10
2017-10-05T17:35:41.885Z,90.40
2017-10-05T17:38:09.439Z,90.70
2017-10-05T17:40:37.072Z,91.10
2017-10-05T17:43:04.663Z,91.40
2017-10-05T17:45:32.234Z,91.90
2017-10-05T17:47:59.831Z,91.60
2017-10-05T17:50:28.182Z,92.00
2017-10-05T17:52:55.766Z,92.00
2017-10-05T17:55:24.108Z,91.00
2017-10-05T17:57:51.718Z,91.00
2017-10-05T18:00:19.434Z,90.80
2017-10-05T18:02:47.092Z,90.80
2017-10-05T18:05:14.647Z,90.90
2017-10-05T18:07:42.217Z,91.20
2017-10-05T18:10:09.797Z,91.30
2017-10-05T18:12:37.402Z,91.30
2017-10-05T18:15:04.980Z,91.00
2017-10-05T18:17:32.540Z,91.00
2017-10-05T18:20:00.124Z,90.70
2017-10-05T18:22:27.678Z,90.80
2017-10-05T18:24:55.455Z,91.00
2017-10-05T18:27:23.012Z,90.80
2017-10-05T18:29:50.574Z,90.80
2017-10-05T18:32:18.157Z,91.10
2017-10-05T18:34:46.485Z,91.20
2017-10-05T18:37:14.073Z,91.20
2017-10-05T18:39:41.620Z,91.10
2017-10-05T18:42:09.209Z,91.30
2017-10-05T18:44:36.749Z,91.50
2017-10-05T18:47:04.357Z,91.70
2017-10-05T18:49:31.913Z,91.60
2017-10-05T18:52:00.281Z,91.40
2017-10-05T18:54:28.634Z,91.20
2017-10-05T18:56:56.213Z,91.20
2017-10-05T18:59:23.769Z,91.40
2017-10-05T19:01:51.344Z,91.30
2017-10-05T19:04:19.671Z,91.20
2017-10-05T19:06:47.270Z,91.20
2017-10-05T19:09:15.697Z,91.20
2017-10-05T19:11:43.273Z,91.20
2017-10-05T19:14:10.839Z,91.10
2017-10-05T19:16:38.421Z,91.10
2017-10-05T19:19:05.997Z,91.20
2017-10-05T19:21:33.570Z,91.00
2017-10-05T19:24:01.962Z,91.00
2017-10-05T19:26:29.541Z,91.00
2017-10-05T19:28:57.119Z,90.80
2017-10-05T19:31:24.700Z,90.80
2017-10-05T19:33:52.290Z,90.80
2017-10-05T19:36:20.643Z,90.90
2017-10-05T19:38:48.217Z,90.90
2017-10-05T19:41:16.556Z,90.70
2017-10-05T19:43:44.117Z,90.70
2017-10-05T19:46:11.676Z,90.90
2017-10-05T19:48:39.251Z,90.90
2017-10-05T19:51:06.837Z,90.80
2017-10-05T19:53:35.155Z,90.80
2017-10-05T19:56:02.722Z,90.70
2017-10-05T19:58:30.295Z,91.00
2017-10-05T20:01:01.809Z,91.10
2017-10-05T20:03:30.142Z,91.40
2017-10-05T20:05:57.771Z,91.00
2017-10-05T20:08:25.343Z,90.90
2017-10-05T20:10:54.509Z,90.90
2017-10-05T20:13:28.744Z,90.90
2017-10-05T20:15:59.834Z,90.80
2017-10-05T20:18:43.902Z,90.80
2017-10-05T20:21:27.120Z,90.70
2017-10-05T20:23:59.387Z,90.60
2017-10-05T20:26:46.384Z,90.70
2017-10-05T20:29:34.680Z,90.60
2017-10-05T20:32:18.072Z,90.70
2017-10-05T20:34:45.648Z,90.80
2017-10-05T20:37:13.974Z,90.70
2017-10-05T20:39:41.570Z,90.70
2017-10-05T20:42:09.121Z,91.00
2017-10-05T20:44:36.708Z,90.50
2017-10-05T20:47:05.015Z,90.70
2017-10-05T20:49:32.575Z,91.00
2017-10-05T20:52:00.138Z,91.10
2017-10-05T20:54:27.694Z,90.90
2017-10-05T20:56:55.264Z,91.00
2017-10-05T20:59:22.847Z,91.10
2017-10-05T21:01:50.413Z,91.00
2017-10-05T21:04:18.009Z,91.10
2017-10-05T21:06:46.352Z,90.90
2017-10-05T21:09:13.907Z,91.30
2017-10-05T21:11:41.508Z,90.90
2017-10-05T21:14:09.845Z,91.00
2017-10-05T21:16:37.436Z,91.40
2017-10-05T21:19:05.759Z,91.50
2017-10-05T21:21:33.310Z,91.50
2017-10-05T21:24:00.878Z,91.50
2017-10-05T21:26:28.433Z,91.40
2017-10-05T21:28:55.988Z,91.50
2017-10-05T21:31:23.603Z,91.60
2017-10-05T21:33:51.182Z,92.00
2017-10-05T21:36:19.495Z,92.90
2017-10-05T21:38:47.058Z,92.90
2017-10-05T21:41:14.637Z,92.80
2017-10-05T21:43:42.217Z,92.60
2017-10-05T21:46:09.766Z,92.10
2017-10-05T21:48:37.338Z,91.80
2017-10-05T21:51:04.918Z,91.80
2017-10-05T21:53:33.236Z,91.90
2017-10-05T21:56:00.795Z,91.90
2017-10-05T21:58:28.392Z,91.90
2017-10-05T22:00:56.032Z,92.30
2017-10-05T22:03:23.660Z,91.90
2017-10-05T22:05:51.252Z,92.30
2017-10-05T22:08:18.841Z,92.40
2017-10-05T22:10:46.456Z,92.10
2017-10-05T22:13:14.046Z,92.20
2017-10-05T22:15:41.671Z,92.30
2017-10-05T22:18:09.262Z,92.20
2017-10-05T22:20:36.855Z,92.30
2017-10-05T22:23:05.229Z,92.30
2017-10-05T22:25:32.812Z,92.30
2017-10-05T22:28:01.194Z,92.00
2017-10-05T22:30:28.811Z,92.10
2017-10-05T22:32:56.428Z,92.00
2017-10-05T22:35:24.020Z,92.10
2017-10-05T22:37:51.630Z,92.00
2017-10-05T22:40:19.965Z,92.00
2017-10-05T22:42:47.573Z,92.00
2017-10-05T22:45:15.918Z,91.90
2017-10-05T22:47:43.539Z,91.90
2017-10-05T22:50:11.151Z,91.70
2017-10-05T22:52:38.735Z,91.80
2017-10-05T22:55:06.353Z,92.30
2017-10-05T22:57:33.946Z,91.80
2017-10-05T23:00:02.334Z,91.70
2017-10-05T23:02:30.703Z,91.70
2017-10-05T23:04:59.058Z,91.80
2017-10-05T23:07:26.635Z,91.80
2017-10-05T23:09:54.252Z,91.90
2017-10-05T23:12:21.878Z,91.90
2017-10-05T23:14:50.242Z,91.50
2017-10-05T23:17:18.602Z,91.50
2017-10-05T23:19:46.187Z,91.50
2017-10-05T23:22:14.555Z,91.30
2017-10-05T23:24:42.913Z,91.40
2017-10-05T23:27:10.538Z,91.40
2017-10-05T23:29:38.139Z,91.40
2017-10-05T23:32:05.746Z,91.50
2017-10-05T23:34:33.335Z,91.40
2017-10-05T23:37:00.922Z,91.40
2017-10-05T23:39:28.554Z,91.60
2017-10-05T23:41:56.139Z,91.10
2017-10-05T23:44:23.754Z,91.40
2017-10-05T23:46:51.361Z,91.50
2017-10-05T23:49:18.958Z,91.50
2017-10-05T23:51:47.312Z,91.50
2017-10-05T23:54:14.923Z,91.50
2017-10-05T23:56:42.520Z,91.50
2017-10-05T23:59:10.115Z,91.70
